Time;durP1;ratioP1;P1;durP2;ratioP2;P2;SDS_P1;SDS_P2;PMS_P1;PMS_P2;Temp;Humidity;BMP_temperature;BMP_pressure;BME280_temperature;BME280_humidity;BME280_pressure;Samples;Min_cycle;Max_cycle;Signal;HPM_P1;HPM_P2
2022/01/26 00:06:05;;;;;;;;;25.33;23.67;;;;;3.18;92.09;102746.78;4871748;29;44787;-84
2022/01/26 00:08:32;;;;;;;;;36.67;31.67;;;;;3.25;91.37;102754.31;4870264;29;45883;-84
2022/01/26 00:10:57;;;;;;;;;23.33;21.67;;;;;3.22;91.91;102751.47;4854788;29;48373;-84
2022/01/26 00:13:23;;;;;;;;;36.00;33.67;;;;;3.20;91.95;102747.81;4871432;29;45467;-84
2022/01/26 00:15:48;;;;;;;;;29.33;28.67;;;;;3.17;91.75;102755.44;4874919;29;45373;-85
2022/01/26 00:18:15;;;;;;;;;39.33;32.00;;;;;3.08;92.11;102744.25;4875365;29;45674;-84
2022/01/26 00:20:49;;;;;;;;;28.00;26.00;;;;;3.00;92.28;102736.69;4858642;29;48008;-84
2022/01/26 00:39:37;;;;;;;;;35.67;30.67;;;;;3.36;92.19;102748.16;4872137;29;45672;-84
2022/01/26 00:42:02;;;;;;;;;42.00;33.00;;;;;3.43;92.23;102761.78;4871387;29;45838;-84
2022/01/26 00:44:37;;;;;;;;;36.33;30.33;;;;;3.35;92.27;102753.31;4871297;29;45550;-84
2022/01/26 00:47:02;;;;;;;;;31.67;28.67;;;;;3.32;92.90;102748.75;4858593;29;45440;-84
2022/01/26 00:49:28;;;;;;;;;31.67;26.00;;;;;3.34;92.30;102762.91;4875319;29;44865;-84
2022/01/26 00:51:54;;;;;;;;;30.33;30.33;;;;;3.31;92.34;102752.19;4844744;29;45602;-84
2022/01/26 00:54:20;;;;;;;;;27.00;20.00;;;;;3.27;91.79;102749.19;4857295;29;44766;-84
2022/01/26 00:56:45;;;;;;;;;39.00;37.33;;;;;3.35;92.44;102764.78;4873935;29;45467;-84
2022/01/26 00:59:11;;;;;;;;;39.00;33.33;;;;;3.38;92.92;102758.81;4858097;29;45611;-84
2022/01/26 01:01:37;;;;;;;;;32.33;30.00;;;;;3.33;93.02;102747.97;4854254;29;48521;-84
2022/01/26 01:04:03;;;;;;;;;30.33;29.67;;;;;3.47;92.09;102750.69;4873489;29;45336;-84
2022/01/26 01:06:43;;;;;;;;;40.00;30.67;;;;;3.48;91.86;102763.97;4868397;29;45735;-83
2022/01/26 01:09:09;;;;;;;;;34.67;29.67;;;;;3.39;91.70;102743.16;4876968;29;44881;-84
2022/01/26 01:11:34;;;;;;;;;36.00;32.00;;;;;3.42;92.02;102736.28;4860453;29;46976;-84
2022/01/26 01:14:00;;;;;;;;;32.67;30.67;;;;;3.53;92.48;102738.91;4860054;29;45629;-84
2022/01/26 01:16:25;;;;;;;;;32.67;30.33;;;;;3.58;91.98;102734.00;4863038;29;45459;-84
2022/01/26 01:29:42;;;;;;;;;38.00;35.00;;;;;3.54;91.30;102737.22;4869214;29;44810;-85
2022/01/26 01:32:13;;;;;;;;;39.00;36.67;;;;;3.60;91.49;102758.72;4856830;29;47166;-84
2022/01/26 01:34:40;;;;;;;;;36.67;33.67;;;;;3.61;90.79;102736.84;4873631;29;45471;-84
2022/01/26 01:37:09;;;;;;;;;40.00;29.67;;;;;3.67;90.41;102749.56;4857087;29;45527;-85
2022/01/26 01:39:36;;;;;;;;;38.00;36.00;;;;;3.64;90.63;102738.81;4857084;29;45454;-85
2022/01/26 01:42:04;;;;;;;;;37.00;34.33;;;;;3.71;91.26;102746.34;4855159;29;47054;-85
2022/01/26 01:44:30;;;;;;;;;37.33;34.00;;;;;3.68;91.10;102747.03;4855392;29;45440;-85
2022/01/26 01:50:17;;;;;;;;;38.33;33.33;;;;;3.65;90.77;102746.81;4876266;29;45549;-85
2022/01/26 01:52:42;;;;;;;;;37.67;33.67;;;;;3.62;91.27;102750.94;4876049;29;45706;-85
2022/01/26 01:55:08;;;;;;;;;46.00;38.00;;;;;3.69;90.48;102754.13;4859014;29;45860;-85
2022/01/26 01:57:34;;;;;;;;;43.67;34.67;;;;;3.75;90.71;102758.94;4876567;29;45462;-85
2022/01/26 02:03:21;;;;;;;;;39.67;33.00;;;;;3.54;90.25;102755.63;4873892;29;45339;-85
2022/01/26 02:05:47;;;;;;;;;33.67;27.00;;;;;3.48;89.93;102749.91;4855408;29;45445;-85
2022/01/26 02:08:12;;;;;;;;;45.00;37.67;;;;;3.53;90.29;102769.56;4873865;29;46069;-85
2022/01/26 02:10:38;;;;;;;;;36.33;31.00;;;;;3.59;90.88;102767.38;4857710;29;45785;-85
2022/01/26 02:13:14;;;;;;;;;40.00;30.33;;;;;3.68;90.20;102765.47;4874875;29;45537;-85
2022/01/26 02:15:48;;;;;;;;;34.00;30.00;;;;;3.67;90.11;102766.25;4861062;29;45444;-85
2022/01/26 02:19:50;;;;;;;;;32.00;27.67;;;;;3.68;90.36;102773.34;4861131;29;45427;-85
2022/01/26 03:02:51;;;;;;;;;38.33;33.00;;;;;3.74;89.73;102738.69;4831004;29;45518;-85
2022/01/26 03:05:19;;;;;;;;;37.00;32.33;;;;;3.81;90.25;102739.22;4831370;29;45397;-85
2022/01/26 03:08:06;;;;;;;;;34.67;27.00;;;;;3.78;89.07;102741.66;4831073;29;45571;-85
2022/01/26 03:10:40;;;;;;;;;36.33;31.67;;;;;3.68;89.24;102738.25;4830812;29;45441;-85
2022/01/26 03:13:15;;;;;;;;;41.00;34.67;;;;;3.64;89.31;102731.84;4830712;29;44877;-85
2022/01/26 03:15:46;;;;;;;;;34.00;33.33;;;;;3.67;90.34;102736.41;4834647;29;45478;-85
2022/01/26 03:20:51;;;;;;;;;36.67;24.67;;;;;3.59;89.92;102741.09;4835810;29;45595;-85
2022/01/26 03:29:09;;;;;;;;;33.67;30.00;;;;;3.71;90.87;102731.47;4835794;29;45571;-85
2022/01/26 03:34:10;;;;;;;;;38.00;31.33;;;;;3.80;90.20;102716.38;4836833;29;45363;-85
2022/01/26 03:39:43;;;;;;;;;40.67;31.33;;;;;3.69;90.29;102727.81;4811329;29;46142;-84
2022/01/26 03:42:14;;;;;;;;;31.00;28.33;;;;;3.67;90.65;102724.16;4795497;29;45487;-84
2022/01/26 03:44:41;;;;;;;;;38.00;37.33;;;;;3.59;90.89;102696.34;4811281;29;45479;-84
2022/01/26 03:47:06;;;;;;;;;47.33;38.00;;;;;3.74;90.47;102726.44;4801037;29;45341;-84
2022/01/26 03:49:34;;;;;;;;;34.33;28.67;;;;;3.81;90.52;102735.69;4818067;29;46900;-85
2022/01/26 03:52:01;;;;;;;;;35.33;33.00;;;;;3.88;90.46;102734.41;4802950;29;45843;-85
2022/01/26 03:54:26;;;;;;;;;38.33;32.67;;;;;3.87;90.46;102719.44;4801266;29;45511;-85
2022/01/26 03:56:51;;;;;;;;;41.67;37.33;;;;;3.88;90.10;102719.56;4817471;29;45790;-85
2022/01/26 03:59:17;;;;;;;;;37.00;34.00;;;;;4.04;89.99;102739.09;4818572;29;48062;-84
2022/01/26 04:01:42;;;;;;;;;37.67;33.33;;;;;4.05;89.65;102738.31;4813451;29;46034;-84
2022/01/26 04:04:08;;;;;;;;;45.00;33.00;;;;;4.07;90.18;102737.59;4812287;29;46180;-83
2022/01/26 04:06:34;;;;;;;;;46.33;34.00;;;;;4.06;89.94;102729.59;4797608;29;45659;-84
2022/01/26 04:09:04;;;;;;;;;51.00;42.33;;;;;4.14;89.58;102733.69;4812892;29;47635;-84
2022/01/26 04:11:37;;;;;;;;;36.67;33.33;;;;;4.13;89.28;102724.88;4813461;29;45528;-84
2022/01/26 04:14:07;;;;;;;;;46.67;41.00;;;;;4.11;89.00;102723.84;4798984;29;45371;-84
2022/01/26 04:16:33;;;;;;;;;40.33;38.00;;;;;4.08;89.25;102717.44;4852368;29;45417;-84
2022/01/26 04:18:59;;;;;;;;;45.67;40.33;;;;;4.02;89.38;102710.03;4871845;29;45783;-84
2022/01/26 04:24:04;;;;;;;;;40.33;33.00;;;;;4.06;89.04;102720.00;4871479;29;45425;-85
2022/01/26 04:26:41;;;;;;;;;36.33;32.33;;;;;4.03;89.28;102714.50;4872111;29;45419;-85
2022/01/26 04:29:11;;;;;;;;;50.67;37.67;;;;;3.91;89.65;102700.44;4871647;28;45444;-84
2022/01/26 04:31:37;;;;;;;;;45.33;38.67;;;;;3.95;88.80;102723.56;4871514;28;45690;-84
2022/01/26 04:34:02;;;;;;;;;46.00;35.33;;;;;3.96;88.74;102722.75;4867020;29;45545;-84
2022/01/26 04:36:34;;;;;;;;;42.00;35.67;;;;;3.88;89.02;102709.03;4852906;29;45822;-84
2022/01/26 04:39:08;;;;;;;;;45.75;40.00;;;;;4.05;89.30;102718.16;4851591;29;47315;-84
2022/01/26 04:41:40;;;;;;;;;45.67;42.00;;;;;4.12;89.39;102717.78;4853108;29;45402;-84
2022/01/26 04:44:17;;;;;;;;;40.33;39.33;;;;;4.19;88.72;102727.03;4855003;29;45916;-84
2022/01/26 04:46:44;;;;;;;;;42.67;36.33;;;;;4.28;88.62;102705.72;4855173;29;45354;-84
2022/01/26 04:49:09;;;;;;;;;42.67;35.33;;;;;4.27;88.47;102698.63;4877440;28;45329;-84
2022/01/26 04:51:35;;;;;;;;;44.33;39.67;;;;;4.30;87.89;102705.03;4876562;28;45349;-84
2022/01/26 04:54:02;;;;;;;;;44.67;40.00;;;;;4.39;87.88;102716.19;4860375;29;45440;-84
2022/01/26 04:56:27;;;;;;;;;37.33;34.67;;;;;4.36;87.44;102715.06;4859734;29;45595;-84
2022/01/26 04:58:53;;;;;;;;;35.00;32.00;;;;;4.29;87.06;102707.56;4859048;29;46975;-84
2022/01/26 05:01:18;;;;;;;;;40.33;35.33;;;;;4.20;87.46;102700.81;4859307;29;45456;-84
2022/01/26 05:03:44;;;;;;;;;48.67;40.00;;;;;4.20;87.40;102708.72;4872962;29;45702;-84
2022/01/26 05:06:09;;;;;;;;;44.67;39.33;;;;;4.19;88.61;102712.16;4855504;29;45496;-84
2022/01/26 05:08:36;;;;;;;;;41.33;36.33;;;;;4.31;88.46;102717.38;4854992;29;48411;-84
2022/01/26 05:11:02;;;;;;;;;32.67;29.00;;;;;4.36;88.62;102712.44;4859245;29;46085;-83
2022/01/26 05:13:28;;;;;;;;;49.25;43.00;;;;;4.43;88.16;102719.97;4856661;29;45387;-85
2022/01/26 05:15:53;;;;;;;;;62.50;47.75;;;;;4.41;88.28;102711.06;4854708;29;45742;-85
2022/01/26 05:18:19;;;;;;;;;44.00;40.50;;;;;4.50;88.28;102709.03;4856538;29;46881;-85
2022/01/26 05:20:44;;;;;;;;;44.33;39.67;;;;;4.55;88.11;102723.47;4860742;29;44757;-84
2022/01/26 05:23:10;;;;;;;;;42.67;37.67;;;;;4.54;87.64;102711.09;4876862;29;45752;-84
2022/01/26 05:25:35;;;;;;;;;48.33;42.33;;;;;4.49;87.38;102707.22;4877297;28;45379;-84
2022/01/26 05:28:01;;;;;;;;;53.00;43.00;;;;;4.47;87.49;102698.31;4859768;29;46959;-84
2022/01/26 05:30:27;;;;;;;;;57.00;45.50;;;;;4.51;88.18;102710.88;4859888;29;45421;-83
2022/01/26 05:32:53;;;;;;;;;57.75;45.75;;;;;4.46;88.11;102696.47;4857081;29;45480;-83
2022/01/26 05:35:18;;;;;;;;;49.33;44.00;;;;;4.49;88.07;102706.34;4856380;29;45601;-84
2022/01/26 05:37:44;;;;;;;;;47.75;42.50;;;;;4.52;87.53;102702.16;4861778;29;45675;-84
2022/01/26 05:40:11;;;;;;;;;49.75;43.25;;;;;4.53;87.29;102703.09;4852666;29;45482;-83
2022/01/26 05:42:37;;;;;;;;;46.33;42.00;;;;;4.48;87.42;102701.84;4837715;29;45450;-84
2022/01/26 05:45:07;;;;;;;;;51.67;40.67;;;;;4.51;87.81;102700.34;4854164;29;45359;-84
2022/01/26 05:47:34;;;;;;;;;48.33;38.67;;;;;4.48;87.05;102700.13;4857490;29;47438;-84
2022/01/26 05:50:01;;;;;;;;;49.67;40.00;;;;;4.41;86.92;102701.41;4858071;29;45475;-84
2022/01/26 05:52:27;;;;;;;;;52.00;42.67;;;;;4.47;87.67;102705.31;4856953;29;44832;-83
2022/01/26 05:54:52;;;;;;;;;53.25;42.75;;;;;4.40;87.33;102685.50;4854889;29;45366;-84
2022/01/26 05:57:18;;;;;;;;;41.00;39.33;;;;;4.42;86.96;102694.41;4855451;29;47249;-84
2022/01/26 05:59:43;;;;;;;;;56.00;42.67;;;;;4.53;86.79;102703.09;4857742;29;45310;-83
2022/01/26 06:02:17;;;;;;;;;50.67;43.33;;;;;4.61;87.02;102707.19;4854186;29;45818;-84
2022/01/26 06:04:42;;;;;;;;;41.67;39.67;;;;;4.63;86.28;102705.56;4853082;29;45376;-84
2022/01/26 06:07:10;;;;;;;;;56.00;43.00;;;;;4.63;86.66;102700.31;4851898;29;45827;-84
2022/01/26 06:09:36;;;;;;;;;42.67;41.33;;;;;4.69;86.54;102713.91;4836940;29;45406;-84
2022/01/26 06:12:01;;;;;;;;;49.67;43.67;;;;;4.68;85.86;102709.44;4837357;29;45398;-84
2022/01/26 06:14:28;;;;;;;;;45.67;42.00;;;;;4.63;86.07;102694.13;4854271;29;45334;-84
2022/01/26 06:16:53;;;;;;;;;59.33;45.33;;;;;4.55;86.71;102699.75;4857340;29;46514;-83
2022/01/26 06:19:19;;;;;;;;;51.67;45.00;;;;;4.64;86.41;102714.38;4842382;29;45804;-84
2022/01/26 06:21:45;;;;;;;;;53.67;44.33;;;;;4.67;86.39;102723.44;4843497;29;44949;-85
2022/01/26 06:24:10;;;;;;;;;60.00;43.33;;;;;4.67;86.36;102725.16;4843673;29;45645;-85
2022/01/26 06:27:23;;;;;;;;;49.00;42.00;;;;;4.76;85.75;102728.41;4840059;29;45493;-84
2022/01/26 06:29:48;;;;;;;;;42.00;37.00;;;;;4.65;85.20;102737.31;4842344;29;45477;-84
2022/01/26 06:32:16;;;;;;;;;49.67;42.33;;;;;4.59;85.95;102741.31;4855735;29;45399;-85
2022/01/26 06:34:42;;;;;;;;;54.00;42.33;;;;;4.54;86.28;102736.53;4852506;29;45446;-84
2022/01/26 06:37:07;;;;;;;;;57.00;43.33;;;;;4.57;86.14;102758.75;4838005;29;48148;-85
2022/01/26 06:39:33;;;;;;;;;50.67;42.67;;;;;4.56;86.08;102751.63;4851880;29;45476;-85
2022/01/26 06:41:58;;;;;;;;;58.67;47.00;;;;;4.58;86.63;102755.28;4853264;29;45433;-84
2022/01/26 06:44:31;;;;;;;;;50.33;40.33;;;;;4.61;86.62;102755.53;4853854;29;45303;-85
2022/01/26 06:49:30;;;;;;;;;55.25;44.75;;;;;4.58;86.15;102755.28;4856852;29;45849;-84
2022/01/26 06:51:57;;;;;;;;;56.33;42.67;;;;;4.68;86.11;102771.78;4855475;29;45421;-84
2022/01/26 06:54:23;;;;;;;;;60.67;44.33;;;;;4.68;86.47;102772.69;4854974;29;45383;-84
2022/01/26 06:56:49;;;;;;;;;57.00;44.00;;;;;4.66;85.74;102771.66;4854413;29;46747;-85
2022/01/26 06:59:14;;;;;;;;;57.75;44.75;;;;;4.68;86.37;102769.13;4854123;29;45421;-85
2022/01/26 07:01:41;;;;;;;;;62.75;47.25;;;;;4.72;86.04;102774.72;4854725;29;45361;-84
2022/01/26 07:04:07;;;;;;;;;60.75;48.25;;;;;4.73;85.98;102765.13;4853842;29;45691;-84
2022/01/26 07:06:32;;;;;;;;;50.67;44.00;;;;;4.75;85.98;102781.97;4854275;29;47143;-84
2022/01/26 07:08:58;;;;;;;;;51.75;43.50;;;;;4.72;85.96;102768.53;4857265;29;44804;-84
2022/01/26 07:12:14;;;;;;;;;55.00;44.00;;;;;4.74;86.71;102765.19;4857801;29;45430;-83
2022/01/26 07:20:55;;;;;;;;;51.25;40.50;;;;;4.58;86.14;102762.28;4845841;29;44882;-84
2022/01/26 07:22:53;;;;;;;;;58.25;43.75;;;;;4.58;86.22;102765.84;4859883;29;45382;-86
2022/01/26 07:25:21;;;;;;;;;56.00;44.25;;;;;4.60;86.10;102759.00;4843640;29;45474;-86
2022/01/26 07:27:47;;;;;;;;;60.00;41.00;;;;;4.52;86.01;102757.50;4858432;29;45542;-86
2022/01/26 07:30:20;;;;;;;;;50.00;43.00;;;;;4.54;86.01;102763.78;4876580;29;45461;-86
2022/01/26 07:32:45;;;;;;;;;50.00;42.00;;;;;4.49;85.78;102761.66;4860266;29;45457;-86
2022/01/26 07:35:18;;;;;;;;;54.00;44.50;;;;;4.47;86.16;102752.72;4875300;29;45847;-86
2022/01/26 07:37:47;;;;;;;;;58.50;46.75;;;;;4.54;85.77;102779.59;4859542;29;45425;-86
2022/01/26 07:40:15;;;;;;;;;60.75;44.50;;;;;4.50;85.62;102772.28;4858746;29;45366;-86
2022/01/26 07:42:42;;;;;;;;;64.25;46.25;;;;;4.32;86.51;102739.34;4858343;29;45575;-86
2022/01/26 07:45:10;;;;;;;;;52.25;43.50;;;;;4.49;86.86;102761.66;4858961;29;45731;-85
2022/01/26 07:47:37;;;;;;;;;51.00;44.00;;;;;4.38;86.00;102752.97;4861532;29;47174;-85
2022/01/26 07:50:07;;;;;;;;;49.00;43.00;;;;;4.36;86.16;102744.03;4863865;29;45662;-86
2022/01/26 07:52:37;;;;;;;;;54.00;43.00;;;;;4.28;86.16;102732.03;4862058;29;45419;-85
2022/01/26 07:55:10;;;;;;;;;43.25;40.75;;;;;4.51;85.74;102773.22;4864441;29;45734;-86
2022/01/26 07:57:35;;;;;;;;;47.00;37.50;;;;;4.50;86.98;102776.66;4879980;29;46541;-87
2022/01/26 08:00:04;;;;;;;;;50.50;46.00;;;;;4.48;86.75;102768.63;4864402;29;45501;-86
2022/01/26 08:02:30;;;;;;;;;49.75;43.25;;;;;4.68;86.07;102793.75;4862798;29;45451;-86
2022/01/26 08:04:59;;;;;;;;;50.25;41.25;;;;;4.74;86.39;102777.47;4860003;29;45478;-86
2022/01/26 08:07:26;;;;;;;;;57.00;44.00;;;;;4.78;85.82;102776.88;4859435;29;45331;-86
2022/01/26 08:09:52;;;;;;;;;56.50;46.75;;;;;4.74;85.96;102745.84;4858335;29;44962;-87
2022/01/26 08:12:21;;;;;;;;;55.50;44.25;;;;;4.75;85.81;102734.50;4857449;29;45474;-85
2022/01/26 08:14:46;;;;;;;;;55.00;44.33;;;;;4.80;86.10;102757.72;4875398;29;45319;-84
2022/01/26 08:17:25;;;;;;;;;61.00;47.50;;;;;4.89;86.11;102767.06;4876456;29;45301;-85
2022/01/26 08:20:04;;;;;;;;;50.75;42.50;;;;;4.90;86.01;102759.28;4861414;29;46066;-87
2022/01/26 08:22:45;;;;;;;;;57.25;44.50;;;;;4.87;86.09;102740.63;4862847;29;45673;-86
2022/01/26 08:25:14;;;;;;;;;53.00;46.50;;;;;4.84;86.13;102711.41;4861384;29;45004;-86
2022/01/26 08:28:11;;;;;;;;;;;;;;;;;;;;;
2022/01/26 08:30:59;;;;;;;;;47.75;41.75;;;;;5.28;85.48;102755.72;4836159;29;72105;-86
2022/01/26 08:33:49;;;;;;;;;65.75;51.25;;;;;5.16;85.27;102753.16;4809246;29;44932;-86
2022/01/26 08:36:17;;;;;;;;;57.00;48.00;;;;;5.10;85.49;102746.56;4809164;29;44969;-86
2022/01/26 08:38:56;;;;;;;;;;;;;;;;;;;;;
2022/01/26 08:41:40;;;;;;;;;63.75;47.00;;;;;4.84;85.58;102689.41;4839163;29;71893;-87
2022/01/26 08:44:06;;;;;;;;;63.00;49.00;;;;;4.97;86.22;102713.19;4793370;29;45613;-87
2022/01/26 08:46:32;;;;;;;;;57.75;50.50;;;;;5.27;86.42;102767.13;4838337;29;45376;-87
2022/01/26 08:48:57;;;;;;;;;60.00;48.00;;;;;5.22;86.19;102750.94;4824894;29;45419;-87
2022/01/26 08:51:29;;;;;;;;;58.75;47.50;;;;;5.36;84.75;102777.38;4840940;29;45500;-86
2022/01/26 08:54:19;;;;;;;;;59.75;48.75;;;;;4.97;84.60;102729.91;4841720;29;45537;-86
2022/01/26 08:56:49;;;;;;;;;50.75;44.75;;;;;4.91;85.10;102747.94;4840320;29;44954;-85
2022/01/26 08:59:40;;;;;;;;;56.25;46.75;;;;;5.15;84.76;102795.25;4840603;29;45845;-87
2022/01/26 09:08:43;;;;;;;;;56.75;45.50;;;;;4.83;84.82;102751.78;4783714;29;44862;-88
2022/01/26 09:11:40;;;;;;;;;47.25;40.25;;;;;4.79;85.24;102749.72;4779046;29;45441;-87
2022/01/26 09:14:38;;;;;;;;;;;;;;;;;;;;;
2022/01/26 09:17:07;;;;;;;;;65.50;49.75;;;;;4.95;85.80;102793.91;4805393;29;69036;-86
2022/01/26 09:19:44;;;;;;;;;50.25;41.75;;;;;5.07;85.62;102804.38;4772611;29;44924;-86
2022/01/26 09:22:35;;;;;;;;;47.33;42.67;;;;;5.00;85.86;102788.13;4797160;29;45395;-86
2022/01/26 09:25:07;;;;;;;;;56.75;44.50;;;;;5.31;85.69;102819.28;4809079;29;45014;-86
2022/01/26 09:27:36;;;;;;;;;50.00;42.75;;;;;5.26;85.23;102802.19;4787714;29;45803;-87
2022/01/26 09:30:04;;;;;;;;;44.33;40.00;;;;;5.35;86.35;102808.13;4787464;29;45639;-87
2022/01/26 09:32:29;;;;;;;;;50.33;41.67;;;;;5.19;85.85;102777.13;4802606;29;46409;-86
2022/01/26 09:34:57;;;;;;;;;49.67;40.33;;;;;5.29;85.68;102797.16;4802446;29;45340;-87
2022/01/26 09:37:33;;;;;;;;;56.00;44.00;;;;;5.54;85.79;102804.09;4799360;29;44878;-86
2022/01/26 09:40:36;;;;;;;;;48.00;40.00;;;;;5.55;85.47;102821.75;4808634;29;44861;-85
2022/01/26 09:43:03;;;;;;;;;48.00;39.33;;;;;5.60;85.41;102815.06;4792770;29;46312;-88
2022/01/26 09:48:34;;;;;;;;;38.00;36.00;;;;;5.46;84.80;102823.78;4844466;29;44901;-85
2022/01/26 09:51:38;;;;;;;;;;;;;;;;;;;;;
2022/01/26 09:54:14;;;;;;;;;48.67;42.67;;;;;5.32;85.75;102796.44;4847436;29;75157;-87
2022/01/26 09:57:23;;;;;;;;;;;;;;;;;;;;;
2022/01/26 13:45:07;;;;;;;;;59.50;48.25;;;;;7.14;83.35;102671.53;4826371;29;45489;-87
2022/01/26 13:48:05;;;;;;;;;63.50;48.75;;;;;7.29;83.14;102709.50;4841669;29;45344;-89
2022/01/26 14:50:56;;;;;;;;;36.00;27.33;;;;;6.72;83.80;102655.81;2604927;23;46987;-89
2022/01/26 14:55:53;;;;;;;;;38.67;32.67;;;;;6.95;83.66;102675.72;4862208;29;45477;-88
2022/01/26 15:35:08;;;;;;;;;32.00;32.00;;;;;6.80;83.49;102690.66;4807912;29;45417;-86
2022/01/26 15:41:00;;;;;;;;;41.00;34.33;;;;;6.60;82.91;102661.28;4799754;29;44803;-89
2022/01/26 15:52:49;;;;;;;;;47.00;40.00;;;;;6.44;83.58;102636.44;4734507;29;45462;-87
2022/01/26 16:08:34;;;;;;;;;49.00;40.67;;;;;6.43;83.46;102661.97;4763458;29;45310;-87
2022/01/26 16:17:04;;;;;;;;;52.00;42.33;;;;;6.53;83.44;102684.59;4748736;29;44892;-87
2022/01/26 17:55:11;;;;;;;;;44.50;34.75;;;;;6.28;84.54;102682.16;4851893;29;45404;-87
2022/01/26 18:31:51;;;;;;;;;58.25;44.75;;;;;6.31;85.12;102682.34;4839649;29;46209;-87
2022/01/26 18:33:18;;;;;;;;;59.50;46.00;;;;;6.16;84.85;102675.28;4840599;29;45401;-87
2022/01/26 18:49:31;;;;;;;;;59.50;46.75;;;;;6.11;85.63;102734.84;4838520;29;45969;-89
2022/01/26 18:51:59;;;;;;;;;54.75;45.25;;;;;6.16;85.88;102730.78;4826625;29;45373;-87
2022/01/26 18:54:30;;;;;;;;;58.75;45.00;;;;;6.21;85.62;102731.97;4814652;29;45541;-87
2022/01/26 18:56:58;;;;;;;;;57.00;45.75;;;;;6.26;85.99;102734.91;4876053;29;45279;-86
2022/01/26 18:59:25;;;;;;;;;59.00;47.25;;;;;6.30;85.83;102734.31;4857279;29;47039;-87
2022/01/26 19:01:52;;;;;;;;;63.75;49.25;;;;;6.28;85.72;102730.66;4837622;29;45498;-87
2022/01/26 19:04:28;;;;;;;;;62.00;46.50;;;;;6.28;85.75;102741.22;4837100;29;45727;-87
2022/01/26 19:06:54;;;;;;;;;52.00;44.67;;;;;6.23;85.79;102736.44;4853160;29;45595;-87
2022/01/26 19:09:27;;;;;;;;;59.75;45.50;;;;;6.02;85.73;102694.66;4838935;29;47244;-88
2022/01/26 19:11:53;;;;;;;;;63.00;48.25;;;;;5.89;85.59;102690.25;4832970;29;45367;-88
2022/01/26 19:14:24;;;;;;;;;63.75;52.25;;;;;5.99;86.31;102697.06;4820405;29;45340;-87
2022/01/26 19:16:57;;;;;;;;;61.25;46.75;;;;;6.21;86.19;102734.59;4835961;29;45428;-88
2022/01/26 19:27:16;;;;;;;;;62.75;49.75;;;;;6.14;86.22;102716.56;4818414;29;44769;-87
2022/01/26 19:32:37;;;;;;;;;65.00;49.50;;;;;6.31;86.39;102714.06;4818786;29;44724;-88
2022/01/26 19:51:22;;;;;;;;;59.50;49.00;;;;;6.33;85.37;102689.56;4784561;29;45905;-87
2022/01/26 19:53:48;;;;;;;;;57.75;44.25;;;;;6.26;85.50;102673.22;4769175;29;45879;-87
2022/01/26 19:56:13;;;;;;;;;54.33;41.00;;;;;6.34;85.14;102683.47;4797742;29;45399;-87
2022/01/26 19:58:39;;;;;;;;;57.00;47.33;;;;;6.29;85.21;102684.91;4796010;29;45367;-87
2022/01/26 20:01:05;;;;;;;;;56.00;44.33;;;;;6.23;85.36;102678.31;4780717;29;46875;-87
2022/01/26 20:03:34;;;;;;;;;66.25;51.50;;;;;6.23;85.29;102686.25;4782562;29;45456;-86
2022/01/26 20:06:02;;;;;;;;;59.75;49.25;;;;;6.24;85.57;102686.34;4797552;29;45462;-87
2022/01/26 20:08:51;;;;;;;;;60.00;48.75;;;;;6.26;85.57;102679.44;4798371;29;45384;-86
2022/01/26 20:11:25;;;;;;;;;60.00;45.00;;;;;6.31;85.53;102674.44;4813548;29;45454;-87
2022/01/26 20:13:53;;;;;;;;;61.75;47.50;;;;;6.34;85.78;102677.25;4813421;29;44940;-87
2022/01/26 20:16:19;;;;;;;;;63.25;47.50;;;;;6.44;85.65;102684.94;4798563;29;45455;-87
2022/01/26 20:18:45;;;;;;;;;53.25;46.25;;;;;6.44;85.36;102679.63;4801406;29;45394;-87
2022/01/26 20:21:10;;;;;;;;;57.75;46.50;;;;;6.40;85.37;102677.63;4817563;29;46028;-87
2022/01/26 20:23:37;;;;;;;;;68.25;53.00;;;;;6.30;85.64;102670.88;4809592;29;45418;-87
2022/01/26 20:26:06;;;;;;;;;63.50;48.75;;;;;6.27;85.60;102670.66;4838863;29;45771;-87
2022/01/26 20:28:35;;;;;;;;;56.50;43.25;;;;;6.28;85.31;102687.44;4837573;29;45469;-87
2022/01/26 20:31:03;;;;;;;;;62.25;47.25;;;;;6.25;85.30;102679.34;4836859;29;46865;-87
2022/01/26 20:33:28;;;;;;;;;64.00;48.50;;;;;6.28;85.37;102677.81;4834430;29;45638;-87
2022/01/26 20:35:54;;;;;;;;;48.25;42.50;;;;;6.32;85.83;102673.59;4851668;29;45725;-87
2022/01/26 20:38:19;;;;;;;;;61.25;49.75;;;;;6.32;85.53;102652.47;4837048;29;45794;-87
2022/01/26 20:40:45;;;;;;;;;60.33;48.33;;;;;6.36;85.38;102680.91;4853067;29;46120;-87
2022/01/26 20:43:12;;;;;;;;;60.25;45.50;;;;;6.35;85.36;102684.38;4836174;29;45445;-87
2022/01/26 20:45:38;;;;;;;;;55.00;46.00;;;;;6.34;85.48;102682.53;4836989;29;44838;-87
2022/01/26 20:48:04;;;;;;;;;55.00;45.00;;;;;6.33;85.46;102686.91;4837826;29;45499;-87
2022/01/26 20:50:32;;;;;;;;;49.33;41.00;;;;;6.26;85.39;102673.22;4836556;29;45313;-86
2022/01/26 20:53:03;;;;;;;;;63.75;49.00;;;;;6.33;85.15;102686.00;4836023;29;45330;-86
2022/01/26 20:55:28;;;;;;;;;52.00;44.00;;;;;6.30;85.43;102685.81;4835971;29;45938;-86
2022/01/26 20:57:54;;;;;;;;;59.00;46.67;;;;;6.21;85.13;102663.28;4835115;29;45369;-86
2022/01/26 21:00:21;;;;;;;;;44.50;40.50;;;;;6.26;84.74;102662.66;4834818;29;47201;-87
2022/01/26 21:02:53;;;;;;;;;50.67;42.00;;;;;6.33;85.14;102686.00;4835529;29;45558;-87
2022/01/26 21:05:24;;;;;;;;;58.33;44.00;;;;;6.37;85.26;102688.03;4838624;29;45725;-86
2022/01/26 21:07:50;;;;;;;;;56.00;44.33;;;;;6.27;84.82;102667.13;4837838;29;45437;-87
2022/01/26 21:10:16;;;;;;;;;40.00;37.33;;;;;6.28;85.11;102687.44;4836238;29;47008;-87
2022/01/26 21:12:42;;;;;;;;;49.00;42.67;;;;;6.17;84.76;102674.47;4835850;29;45382;-88
2022/01/26 21:15:09;;;;;;;;;49.00;43.00;;;;;6.13;85.44;102672.44;4852575;29;45398;-87
2022/01/26 21:17:35;;;;;;;;;44.67;38.67;;;;;5.94;84.95;102664.16;4834296;29;45350;-87
2022/01/26 21:20:00;;;;;;;;;58.33;47.67;;;;;5.79;85.46;102664.97;4850203;29;46045;-87
2022/01/26 21:22:26;;;;;;;;;45.67;39.67;;;;;5.80;85.54;102658.88;4850020;29;45734;-87
2022/01/26 21:24:51;;;;;;;;;55.00;45.00;;;;;5.83;85.63;102660.81;4837570;29;45264;-87
2022/01/26 21:27:17;;;;;;;;;51.67;41.33;;;;;5.83;85.85;102652.88;4854773;29;45360;-86
2022/01/26 21:29:43;;;;;;;;;54.67;43.00;;;;;5.85;85.73;102653.00;4837377;29;46974;-89
2022/01/26 21:32:09;;;;;;;;;49.67;40.33;;;;;5.68;85.70;102629.06;4838722;29;45837;-88
2022/01/26 21:34:34;;;;;;;;;61.75;49.25;;;;;5.79;85.78;102641.22;4838658;29;45446;-87
2022/01/26 21:37:00;;;;;;;;;53.67;44.33;;;;;5.70;85.99;102610.69;4838517;29;45675;-88
2022/01/26 21:39:25;;;;;;;;;62.33;46.33;;;;;5.93;85.73;102642.09;4837769;29;47006;-87
2022/01/26 21:41:51;;;;;;;;;37.00;30.33;;;;;6.01;85.96;102654.09;4837390;29;45817;-87
2022/01/26 21:44:17;;;;;;;;;56.67;43.67;;;;;5.80;85.65;102611.38;4838199;29;45815;-87
2022/01/26 21:46:43;;;;;;;;;60.25;46.25;;;;;6.09;85.46;102661.59;4819349;29;45343;-87
2022/01/26 21:49:09;;;;;;;;;55.75;47.25;;;;;6.03;85.30;102643.63;4851756;29;46900;-88
2022/01/26 21:51:35;;;;;;;;;48.00;41.67;;;;;6.06;85.08;102638.56;4852508;29;45399;-87
2022/01/26 21:54:01;;;;;;;;;42.00;36.00;;;;;6.12;84.83;102644.22;4836362;29;44861;-88
2022/01/26 21:56:26;;;;;;;;;49.00;43.33;;;;;6.04;85.13;102620.75;4836321;29;45273;-88
2022/01/26 21:58:52;;;;;;;;;56.00;42.00;;;;;5.98;84.69;102601.09;4835049;29;46906;-88
2022/01/26 22:01:19;;;;;;;;;48.33;39.67;;;;;6.23;84.62;102641.34;4835833;29;45285;-87
2022/01/26 22:03:44;;;;;;;;;57.00;43.00;;;;;6.17;84.59;102641.84;4838149;29;45537;-87
2022/01/26 22:06:10;;;;;;;;;58.50;44.50;;;;;6.13;84.67;102619.59;4838578;29;45481;-87
2022/01/26 22:08:35;;;;;;;;;48.00;41.33;;;;;6.17;84.57;102629.56;4838259;29;47047;-88
2022/01/26 22:11:01;;;;;;;;;55.33;40.67;;;;;5.97;84.48;102590.41;4855670;29;45459;-87
2022/01/26 22:13:26;;;;;;;;;57.00;45.75;;;;;6.24;84.45;102632.56;4855740;29;45524;-87
2022/01/26 22:15:58;;;;;;;;;52.00;44.00;;;;;6.31;84.30;102635.69;4839594;29;45756;-87